sensor_id;sensor_type;location;lat;lon;timestamp;pressure;altitude;pressure_sealevel;temperature;humidity
48874;BME280;66155;46.204;5.220;2023-01-19T00:03:34;97868.34;;;1.86;69.09
48874;BME280;66155;46.204;5.220;2023-01-19T00:08:36;97866.09;;;1.97;69.16
48874;BME280;66155;46.204;5.220;2023-01-19T00:13:38;97861.47;;;2.05;69.44
48874;BME280;66155;46.204;5.220;2023-01-19T00:18:38;97859.06;;;2.11;68.82
48874;BME280;66155;46.204;5.220;2023-01-19T00:23:39;97858.81;;;1.94;69.14
48874;BME280;66155;46.204;5.220;2023-01-19T00:28:39;97850.38;;;1.86;69.27
48874;BME280;66155;46.204;5.220;2023-01-19T00:33:40;97852.13;;;1.93;68.75
48874;BME280;66155;46.204;5.220;2023-01-19T00:38:40;97862.13;;;2.01;68.54
48874;BME280;66155;46.204;5.220;2023-01-19T00:43:41;97868.41;;;2.05;68.98
48874;BME280;66155;46.204;5.220;2023-01-19T00:48:41;97874.69;;;2.09;68.86
48874;BME280;66155;46.204;5.220;2023-01-19T00:53:41;97870.34;;;2.09;69.17
48874;BME280;66155;46.204;5.220;2023-01-19T00:58:42;97875.63;;;2.15;68.80
48874;BME280;66155;46.204;5.220;2023-01-19T01:03:44;97874.22;;;2.19;68.27
48874;BME280;66155;46.204;5.220;2023-01-19T01:08:44;97877.00;;;2.17;68.58
48874;BME280;66155;46.204;5.220;2023-01-19T01:13:45;97885.44;;;2.24;68.40
48874;BME280;66155;46.204;5.220;2023-01-19T01:18:45;97880.31;;;2.24;68.17
48874;BME280;66155;46.204;5.220;2023-01-19T01:23:45;97890.78;;;2.23;68.11
48874;BME280;66155;46.204;5.220;2023-01-19T01:28:46;97892.00;;;2.20;68.30
48874;BME280;66155;46.204;5.220;2023-01-19T01:33:46;97881.94;;;2.19;68.39
48874;BME280;66155;46.204;5.220;2023-01-19T01:38:46;97880.78;;;2.15;68.52
48874;BME280;66155;46.204;5.220;2023-01-19T01:43:49;97888.28;;;2.16;67.98
48874;BME280;66155;46.204;5.220;2023-01-19T01:49:09;97884.56;;;2.12;68.22
48874;BME280;66155;46.204;5.220;2023-01-19T01:54:20;97887.91;;;2.13;67.95
48874;BME280;66155;46.204;5.220;2023-01-19T01:59:30;97894.47;;;2.08;68.36
48874;BME280;66155;46.204;5.220;2023-01-19T02:04:39;97893.53;;;2.03;68.08
48874;BME280;66155;46.204;5.220;2023-01-19T02:09:43;97898.09;;;2.01;68.65
48874;BME280;66155;46.204;5.220;2023-01-19T02:15:02;97888.75;;;2.06;68.42
48874;BME280;66155;46.204;5.220;2023-01-19T02:20:03;97887.53;;;2.09;68.80
48874;BME280;66155;46.204;5.220;2023-01-19T02:25:04;97893.03;;;2.13;68.30
48874;BME280;66155;46.204;5.220;2023-01-19T02:30:06;97898.19;;;2.13;68.37
48874;BME280;66155;46.204;5.220;2023-01-19T02:35:07;97894.19;;;2.17;68.19
48874;BME280;66155;46.204;5.220;2023-01-19T02:40:14;97902.13;;;2.15;68.33
48874;BME280;66155;46.204;5.220;2023-01-19T02:45:20;97894.63;;;2.14;68.25
48874;BME280;66155;46.204;5.220;2023-01-19T02:50:43;97902.50;;;2.19;68.29
48874;BME280;66155;46.204;5.220;2023-01-19T02:55:55;97900.66;;;2.26;68.00
48874;BME280;66155;46.204;5.220;2023-01-19T03:06:50;97917.06;;;1.75;69.26
48874;BME280;66155;46.204;5.220;2023-01-19T03:12:07;97897.28;;;1.75;68.86
48874;BME280;66155;46.204;5.220;2023-01-19T03:17:09;97892.38;;;1.42;69.10
48874;BME280;66155;46.204;5.220;2023-01-19T03:22:19;97896.00;;;1.59;69.15
48874;BME280;66155;46.204;5.220;2023-01-19T03:27:25;97888.66;;;1.69;69.29
48874;BME280;66155;46.204;5.220;2023-01-19T03:32:32;97886.25;;;1.75;69.17
48874;BME280;66155;46.204;5.220;2023-01-19T03:37:38;97889.53;;;1.82;68.95
48874;BME280;66155;46.204;5.220;2023-01-19T03:42:41;97878.25;;;1.83;68.73
48874;BME280;66155;46.204;5.220;2023-01-19T03:47:42;97880.06;;;1.82;69.33
48874;BME280;66155;46.204;5.220;2023-01-19T03:52:44;97881.00;;;1.88;69.15
48874;BME280;66155;46.204;5.220;2023-01-19T03:57:44;97885.88;;;1.96;69.04
48874;BME280;66155;46.204;5.220;2023-01-19T04:02:44;97900.59;;;2.07;68.62
48874;BME280;66155;46.204;5.220;2023-01-19T04:07:51;97902.50;;;2.19;68.03
48874;BME280;66155;46.204;5.220;2023-01-19T04:13:00;97907.78;;;2.24;67.90
48874;BME280;66155;46.204;5.220;2023-01-19T04:18:00;97903.22;;;2.26;67.81
48874;BME280;66155;46.204;5.220;2023-01-19T04:23:01;97912.28;;;2.28;68.11
48874;BME280;66155;46.204;5.220;2023-01-19T04:28:01;97917.06;;;2.25;67.77
48874;BME280;66155;46.204;5.220;2023-01-19T04:33:02;97913.50;;;2.26;67.73
48874;BME280;66155;46.204;5.220;2023-01-19T04:38:02;97917.41;;;2.28;68.01
48874;BME280;66155;46.204;5.220;2023-01-19T04:43:02;97928.13;;;2.25;67.82
48874;BME280;66155;46.204;5.220;2023-01-19T04:48:03;97943.13;;;1.78;68.72
48874;BME280;66155;46.204;5.220;2023-01-19T04:53:04;97940.81;;;1.63;68.80
48874;BME280;66155;46.204;5.220;2023-01-19T04:58:05;97935.53;;;1.58;68.92
48874;BME280;66155;46.204;5.220;2023-01-19T05:03:05;97935.78;;;1.50;69.24
48874;BME280;66155;46.204;5.220;2023-01-19T05:08:06;97949.94;;;1.59;69.02
48874;BME280;66155;46.204;5.220;2023-01-19T05:13:06;97947.16;;;1.61;68.94
48874;BME280;66155;46.204;5.220;2023-01-19T05:18:06;97942.56;;;1.69;68.48
48874;BME280;66155;46.204;5.220;2023-01-19T05:23:07;97943.84;;;1.54;68.83
48874;BME280;66155;46.204;5.220;2023-01-19T05:28:07;97935.38;;;1.53;69.03
48874;BME280;66155;46.204;5.220;2023-01-19T05:33:08;97943.66;;;1.48;69.36
48874;BME280;66155;46.204;5.220;2023-01-19T05:38:08;97943.34;;;1.70;68.90
48874;BME280;66155;46.204;5.220;2023-01-19T05:43:08;97953.59;;;1.77;68.25
48874;BME280;66155;46.204;5.220;2023-01-19T05:48:09;97947.66;;;1.76;69.15
48874;BME280;66155;46.204;5.220;2023-01-19T05:53:09;97955.38;;;1.76;69.00
48874;BME280;66155;46.204;5.220;2023-01-19T05:58:10;97954.16;;;1.79;68.59
48874;BME280;66155;46.204;5.220;2023-01-19T06:03:10;97966.97;;;1.85;68.62
48874;BME280;66155;46.204;5.220;2023-01-19T06:08:11;97972.25;;;1.97;68.40
48874;BME280;66155;46.204;5.220;2023-01-19T06:13:11;97973.97;;;2.03;68.05
48874;BME280;66155;46.204;5.220;2023-01-19T06:18:12;97966.41;;;2.08;68.17
48874;BME280;66155;46.204;5.220;2023-01-19T06:23:16;97973.78;;;1.98;68.58
48874;BME280;66155;46.204;5.220;2023-01-19T06:28:17;97972.97;;;2.04;68.65
48874;BME280;66155;46.204;5.220;2023-01-19T06:33:17;97973.78;;;1.98;68.69
48874;BME280;66155;46.204;5.220;2023-01-19T06:38:18;97973.06;;;1.91;69.02
48874;BME280;66155;46.204;5.220;2023-01-19T06:43:19;97979.72;;;1.99;68.68
48874;BME280;66155;46.204;5.220;2023-01-19T06:48:19;97986.81;;;2.03;68.59
48874;BME280;66155;46.204;5.220;2023-01-19T06:53:20;97996.88;;;2.05;68.71
48874;BME280;66155;46.204;5.220;2023-01-19T06:58:21;98001.25;;;2.04;68.57
48874;BME280;66155;46.204;5.220;2023-01-19T07:03:22;98009.47;;;2.13;68.12
48874;BME280;66155;46.204;5.220;2023-01-19T07:08:22;98014.84;;;2.12;67.95
48874;BME280;66155;46.204;5.220;2023-01-19T07:13:23;98020.38;;;2.08;68.19
48874;BME280;66155;46.204;5.220;2023-01-19T07:18:23;98025.88;;;2.12;68.03
48874;BME280;66155;46.204;5.220;2023-01-19T07:23:24;98033.47;;;2.00;67.99
48874;BME280;66155;46.204;5.220;2023-01-19T07:28:25;98033.34;;;1.88;68.58
48874;BME280;66155;46.204;5.220;2023-01-19T07:33:25;98033.97;;;1.84;68.46
48874;BME280;66155;46.204;5.220;2023-01-19T07:38:25;98033.56;;;1.80;68.13
48874;BME280;66155;46.204;5.220;2023-01-19T07:43:26;98034.72;;;1.84;68.66
48874;BME280;66155;46.204;5.220;2023-01-19T07:48:26;98045.16;;;1.96;68.03
48874;BME280;66155;46.204;5.220;2023-01-19T07:53:27;98038.38;;;2.08;67.64
48874;BME280;66155;46.204;5.220;2023-01-19T07:58:27;98042.00;;;1.94;67.95
48874;BME280;66155;46.204;5.220;2023-01-19T08:03:28;98051.06;;;1.97;68.21
48874;BME280;66155;46.204;5.220;2023-01-19T08:08:28;98051.00;;;2.10;68.13
48874;BME280;66155;46.204;5.220;2023-01-19T08:13:29;98050.88;;;2.30;67.52
48874;BME280;66155;46.204;5.220;2023-01-19T08:18:29;98051.66;;;2.31;67.43
48874;BME280;66155;46.204;5.220;2023-01-19T08:23:30;98060.19;;;2.31;67.12
48874;BME280;66155;46.204;5.220;2023-01-19T08:28:30;98071.03;;;2.01;68.56
48874;BME280;66155;46.204;5.220;2023-01-19T08:33:31;98070.13;;;2.21;67.63
48874;BME280;66155;46.204;5.220;2023-01-19T08:38:31;98082.66;;;2.36;67.69
48874;BME280;66155;46.204;5.220;2023-01-19T08:43:32;98095.44;;;2.49;67.28
48874;BME280;66155;46.204;5.220;2023-01-19T08:48:32;98100.56;;;2.81;66.80
48874;BME280;66155;46.204;5.220;2023-01-19T08:53:33;98103.38;;;2.98;66.45
48874;BME280;66155;46.204;5.220;2023-01-19T08:58:33;98102.81;;;3.14;66.31
48874;BME280;66155;46.204;5.220;2023-01-19T09:03:35;98108.06;;;3.08;66.09
48874;BME280;66155;46.204;5.220;2023-01-19T09:08:35;98120.94;;;3.08;66.03
48874;BME280;66155;46.204;5.220;2023-01-19T09:13:35;98113.47;;;2.99;66.22
48874;BME280;66155;46.204;5.220;2023-01-19T09:18:36;98126.22;;;3.13;65.93
48874;BME280;66155;46.204;5.220;2023-01-19T09:23:37;98126.69;;;3.03;66.30
48874;BME280;66155;46.204;5.220;2023-01-19T09:28:37;98128.28;;;3.04;65.91
48874;BME280;66155;46.204;5.220;2023-01-19T09:33:38;98135.19;;;2.78;66.38
48874;BME280;66155;46.204;5.220;2023-01-19T09:38:38;98135.16;;;3.10;66.11
48874;BME280;66155;46.204;5.220;2023-01-19T09:48:51;98147.03;;;3.11;66.04
48874;BME280;66155;46.204;5.220;2023-01-19T09:53:55;98145.84;;;2.82;66.18
48874;BME280;66155;46.204;5.220;2023-01-19T09:58:56;98151.56;;;2.59;67.02
48874;BME280;66155;46.204;5.220;2023-01-19T10:04:22;98147.88;;;2.41;67.67
48874;BME280;66155;46.204;5.220;2023-01-19T10:20:18;98150.44;;;2.80;66.77
48874;BME280;66155;46.204;5.220;2023-01-19T10:25:22;98148.03;;;2.85;67.00
48874;BME280;66155;46.204;5.220;2023-01-19T10:30:26;98151.06;;;3.00;66.77
48874;BME280;66155;46.204;5.220;2023-01-19T10:35:28;98159.81;;;2.93;67.12
48874;BME280;66155;46.204;5.220;2023-01-19T10:40:35;98146.56;;;2.96;66.79
48874;BME280;66155;46.204;5.220;2023-01-19T10:45:38;98145.03;;;3.13;66.61
48874;BME280;66155;46.204;5.220;2023-01-19T10:50:39;98149.75;;;3.16;66.86
48874;BME280;66155;46.204;5.220;2023-01-19T10:55:40;98144.91;;;3.27;67.02
48874;BME280;66155;46.204;5.220;2023-01-19T11:00:41;98136.13;;;3.34;67.38
48874;BME280;66155;46.204;5.220;2023-01-19T11:05:42;98142.06;;;3.53;67.37
48874;BME280;66155;46.204;5.220;2023-01-19T11:10:51;98138.09;;;3.57;67.72
48874;BME280;66155;46.204;5.220;2023-01-19T11:15:57;98141.16;;;3.66;67.11
48874;BME280;66155;46.204;5.220;2023-01-19T11:21:01;98132.28;;;3.80;66.80
48874;BME280;66155;46.204;5.220;2023-01-19T11:26:04;98123.56;;;4.12;66.31
48874;BME280;66155;46.204;5.220;2023-01-19T11:36:25;98113.47;;;4.41;65.97
48874;BME280;66155;46.204;5.220;2023-01-19T11:41:29;98110.44;;;4.32;66.07
48874;BME280;66155;46.204;5.220;2023-01-19T11:46:32;98107.50;;;4.28;66.41
48874;BME280;66155;46.204;5.220;2023-01-19T11:51:38;98104.16;;;4.40;65.61
48874;BME280;66155;46.204;5.220;2023-01-19T11:56:40;98101.63;;;4.51;65.60
48874;BME280;66155;46.204;5.220;2023-01-19T12:01:47;98093.03;;;4.93;65.00
48874;BME280;66155;46.204;5.220;2023-01-19T12:06:54;98073.00;;;5.36;63.53
48874;BME280;66155;46.204;5.220;2023-01-19T12:12:09;98067.72;;;5.42;63.38
48874;BME280;66155;46.204;5.220;2023-01-19T12:17:22;98071.75;;;5.38;62.74
48874;BME280;66155;46.204;5.220;2023-01-19T12:22:26;98056.78;;;5.64;63.15
48874;BME280;66155;46.204;5.220;2023-01-19T12:27:38;98053.56;;;5.45;63.17
48874;BME280;66155;46.204;5.220;2023-01-19T12:32:38;98060.69;;;5.26;63.01
48874;BME280;66155;46.204;5.220;2023-01-19T12:37:40;98052.28;;;5.07;63.95
48874;BME280;66155;46.204;5.220;2023-01-19T12:42:46;98043.84;;;5.11;63.77
48874;BME280;66155;46.204;5.220;2023-01-19T12:47:53;98038.88;;;5.33;62.74
48874;BME280;66155;46.204;5.220;2023-01-19T12:52:57;98029.63;;;5.49;62.92
48874;BME280;66155;46.204;5.220;2023-01-19T12:58:06;98020.25;;;5.89;60.68
48874;BME280;66155;46.204;5.220;2023-01-19T13:08:21;98015.63;;;6.71;60.72
48874;BME280;66155;46.204;5.220;2023-01-19T13:13:25;98013.44;;;6.62;59.91
48874;BME280;66155;46.204;5.220;2023-01-19T13:18:31;98009.13;;;6.51;59.38
48874;BME280;66155;46.204;5.220;2023-01-19T13:28:52;97984.38;;;5.76;60.48
48874;BME280;66155;46.204;5.220;2023-01-19T13:33:58;97983.75;;;5.85;60.40
48874;BME280;66155;46.204;5.220;2023-01-19T13:39:01;97974.13;;;6.65;59.13
48874;BME280;66155;46.204;5.220;2023-01-19T13:44:11;97977.00;;;6.86;57.95
48874;BME280;66155;46.204;5.220;2023-01-19T13:49:22;97971.84;;;6.86;59.75
48874;BME280;66155;46.204;5.220;2023-01-19T13:54:25;97955.03;;;7.33;57.89
48874;BME280;66155;46.204;5.220;2023-01-19T13:59:25;97952.88;;;6.63;58.84
48874;BME280;66155;46.204;5.220;2023-01-19T14:04:28;97947.72;;;6.46;59.78
48874;BME280;66155;46.204;5.220;2023-01-19T14:09:29;97940.09;;;6.57;58.62
48874;BME280;66155;46.204;5.220;2023-01-19T14:14:30;97935.47;;;6.59;57.93
48874;BME280;66155;46.204;5.220;2023-01-19T14:19:49;97935.81;;;6.45;57.93
48874;BME280;66155;46.204;5.220;2023-01-19T14:24:49;97945.88;;;6.25;57.56
48874;BME280;66155;46.204;5.220;2023-01-19T14:29:51;97949.25;;;6.25;58.09
48874;BME280;66155;46.204;5.220;2023-01-19T14:45:16;97951.22;;;5.72;59.31
48874;BME280;66155;46.204;5.220;2023-01-19T14:50:27;97958.72;;;5.57;59.98
48874;BME280;66155;46.204;5.220;2023-01-19T14:55:42;97957.31;;;5.38;59.76
48874;BME280;66155;46.204;5.220;2023-01-19T15:00:45;97960.09;;;5.19;60.28
48874;BME280;66155;46.204;5.220;2023-01-19T15:05:47;97960.34;;;5.06;60.06
48874;BME280;66155;46.204;5.220;2023-01-19T15:10:48;97961.38;;;4.93;60.84
48874;BME280;66155;46.204;5.220;2023-01-19T15:15:52;97947.59;;;4.75;61.41
48874;BME280;66155;46.204;5.220;2023-01-19T15:20:53;97948.84;;;4.73;61.50
48874;BME280;66155;46.204;5.220;2023-01-19T15:26:03;97933.03;;;4.57;61.15
48874;BME280;66155;46.204;5.220;2023-01-19T15:31:04;97922.84;;;4.39;61.38
48874;BME280;66155;46.204;5.220;2023-01-19T15:36:05;97912.84;;;4.43;61.70
48874;BME280;66155;46.204;5.220;2023-01-19T15:41:14;97892.81;;;4.21;62.40
48874;BME280;66155;46.204;5.220;2023-01-19T15:46:19;97885.72;;;4.16;62.59
48874;BME280;66155;46.204;5.220;2023-01-19T15:51:24;97889.09;;;4.29;62.28
48874;BME280;66155;46.204;5.220;2023-01-19T15:56:29;97869.81;;;4.19;62.94
48874;BME280;66155;46.204;5.220;2023-01-19T16:01:29;97872.41;;;4.19;62.61
48874;BME280;66155;46.204;5.220;2023-01-19T16:06:31;97866.44;;;4.19;62.66
48874;BME280;66155;46.204;5.220;2023-01-19T16:11:33;97864.00;;;4.12;62.42
48874;BME280;66155;46.204;5.220;2023-01-19T16:16:34;97847.03;;;4.05;62.89
48874;BME280;66155;46.204;5.220;2023-01-19T16:21:34;97840.13;;;4.05;62.71
48874;BME280;66155;46.204;5.220;2023-01-19T16:26:34;97838.09;;;4.07;62.68
48874;BME280;66155;46.204;5.220;2023-01-19T16:31:37;97846.28;;;4.04;62.88
48874;BME280;66155;46.204;5.220;2023-01-19T16:36:39;97849.50;;;3.99;62.91
48874;BME280;66155;46.204;5.220;2023-01-19T16:41:41;97847.28;;;3.91;62.91
48874;BME280;66155;46.204;5.220;2023-01-19T16:46:43;97830.56;;;3.94;62.92
48874;BME280;66155;46.204;5.220;2023-01-19T16:51:44;97825.97;;;3.72;64.18
48874;BME280;66155;46.204;5.220;2023-01-19T16:56:45;97828.44;;;3.67;63.71
48874;BME280;66155;46.204;5.220;2023-01-19T17:01:47;97820.38;;;3.64;63.50
48874;BME280;66155;46.204;5.220;2023-01-19T17:06:49;97822.63;;;3.72;62.98
48874;BME280;66155;46.204;5.220;2023-01-19T17:11:50;97819.16;;;3.66;62.45
48874;BME280;66155;46.204;5.220;2023-01-19T17:16:50;97809.38;;;3.56;62.41
48874;BME280;66155;46.204;5.220;2023-01-19T17:21:51;97811.38;;;3.42;62.71
48874;BME280;66155;46.204;5.220;2023-01-19T17:26:51;97802.41;;;3.33;63.02
48874;BME280;66155;46.204;5.220;2023-01-19T17:31:51;97806.19;;;3.19;63.44
48874;BME280;66155;46.204;5.220;2023-01-19T17:37:07;97808.72;;;3.07;63.67
48874;BME280;66155;46.204;5.220;2023-01-19T17:42:07;97801.53;;;2.97;63.74
48874;BME280;66155;46.204;5.220;2023-01-19T17:47:09;97798.91;;;2.85;64.07
48874;BME280;66155;46.204;5.220;2023-01-19T17:52:09;97792.28;;;2.78;64.69
48874;BME280;66155;46.204;5.220;2023-01-19T17:57:09;97791.25;;;2.67;64.80
48874;BME280;66155;46.204;5.220;2023-01-19T18:02:10;97792.09;;;2.61;65.30
48874;BME280;66155;46.204;5.220;2023-01-19T18:07:10;97798.31;;;2.53;65.15
48874;BME280;66155;46.204;5.220;2023-01-19T18:12:11;97796.28;;;2.43;65.41
48874;BME280;66155;46.204;5.220;2023-01-19T18:17:11;97789.06;;;2.34;65.98
48874;BME280;66155;46.204;5.220;2023-01-19T18:22:11;97782.56;;;2.31;65.63
48874;BME280;66155;46.204;5.220;2023-01-19T18:27:12;97782.44;;;2.26;65.83
48874;BME280;66155;46.204;5.220;2023-01-19T18:32:12;97771.22;;;2.20;66.44
48874;BME280;66155;46.204;5.220;2023-01-19T18:37:12;97764.72;;;2.18;66.13
48874;BME280;66155;46.204;5.220;2023-01-19T18:42:13;97765.94;;;2.15;66.54
48874;BME280;66155;46.204;5.220;2023-01-19T18:47:13;97757.88;;;2.12;66.47
48874;BME280;66155;46.204;5.220;2023-01-19T18:52:14;97747.31;;;2.01;66.91
48874;BME280;66155;46.204;5.220;2023-01-19T18:57:14;97734.88;;;1.98;67.00
48874;BME280;66155;46.204;5.220;2023-01-19T19:02:16;97745.00;;;1.93;67.18
48874;BME280;66155;46.204;5.220;2023-01-19T19:07:17;97741.72;;;1.86;67.32
48874;BME280;66155;46.204;5.220;2023-01-19T19:12:17;97742.13;;;1.83;67.07
48874;BME280;66155;46.204;5.220;2023-01-19T19:17:18;97751.06;;;1.80;67.47
48874;BME280;66155;46.204;5.220;2023-01-19T19:22:18;97757.44;;;1.78;67.24
48874;BME280;66155;46.204;5.220;2023-01-19T19:27:18;97764.31;;;1.77;66.96
48874;BME280;66155;46.204;5.220;2023-01-19T19:32:19;97761.97;;;1.76;66.84
48874;BME280;66155;46.204;5.220;2023-01-19T19:37:20;97769.09;;;1.74;67.08
48874;BME280;66155;46.204;5.220;2023-01-19T19:42:20;97771.09;;;1.71;67.58
48874;BME280;66155;46.204;5.220;2023-01-19T19:47:21;97778.84;;;1.65;67.43
48874;BME280;66155;46.204;5.220;2023-01-19T19:52:21;97764.09;;;1.60;67.77
48874;BME280;66155;46.204;5.220;2023-01-19T19:57:22;97764.09;;;1.60;67.38
48874;BME280;66155;46.204;5.220;2023-01-19T20:02:23;97760.78;;;1.53;67.64
48874;BME280;66155;46.204;5.220;2023-01-19T20:07:23;97769.47;;;1.52;67.97
48874;BME280;66155;46.204;5.220;2023-01-19T20:12:24;97764.97;;;1.47;68.05
48874;BME280;66155;46.204;5.220;2023-01-19T20:17:24;97772.75;;;1.41;68.25
48874;BME280;66155;46.204;5.220;2023-01-19T20:22:24;97780.66;;;1.39;68.11
48874;BME280;66155;46.204;5.220;2023-01-19T20:27:25;97793.53;;;1.32;68.35
48874;BME280;66155;46.204;5.220;2023-01-19T20:32:25;97781.97;;;1.17;68.67
48874;BME280;66155;46.204;5.220;2023-01-19T20:37:26;97800.63;;;1.05;68.83
48874;BME280;66155;46.204;5.220;2023-01-19T20:42:26;97799.50;;;0.94;69.40
48874;BME280;66155;46.204;5.220;2023-01-19T20:47:26;97806.44;;;0.87;69.25
48874;BME280;66155;46.204;5.220;2023-01-19T20:52:27;97803.50;;;0.84;68.67
48874;BME280;66155;46.204;5.220;2023-01-19T20:57:27;97808.25;;;0.80;69.27
48874;BME280;66155;46.204;5.220;2023-01-19T21:02:28;97805.06;;;0.85;69.12
48874;BME280;66155;46.204;5.220;2023-01-19T21:07:28;97805.25;;;0.83;69.14
48874;BME280;66155;46.204;5.220;2023-01-19T21:12:29;97821.09;;;0.73;69.57
48874;BME280;66155;46.204;5.220;2023-01-19T21:17:32;97824.31;;;0.55;70.08
48874;BME280;66155;46.204;5.220;2023-01-19T21:22:32;97832.41;;;0.46;70.31
48874;BME280;66155;46.204;5.220;2023-01-19T21:27:32;97837.97;;;0.36;70.04
48874;BME280;66155;46.204;5.220;2023-01-19T21:32:33;97848.81;;;0.31;70.24
48874;BME280;66155;46.204;5.220;2023-01-19T21:37:33;97848.03;;;0.31;69.95
48874;BME280;66155;46.204;5.220;2023-01-19T21:42:34;97841.19;;;0.18;70.15
48874;BME280;66155;46.204;5.220;2023-01-19T21:47:34;97854.38;;;0.15;70.19
48874;BME280;66155;46.204;5.220;2023-01-19T21:52:35;97852.81;;;0.07;70.25
48874;BME280;66155;46.204;5.220;2023-01-19T21:57:36;97860.50;;;0.01;70.61
48874;BME280;66155;46.204;5.220;2023-01-19T22:02:36;97856.75;;;0.03;69.60
48874;BME280;66155;46.204;5.220;2023-01-19T22:07:36;97873.13;;;0.02;70.08
48874;BME280;66155;46.204;5.220;2023-01-19T22:12:37;97885.50;;;0.05;69.64
48874;BME280;66155;46.204;5.220;2023-01-19T22:17:39;97888.06;;;0.05;69.65
48874;BME280;66155;46.204;5.220;2023-01-19T22:22:39;97887.69;;;0.08;69.33
48874;BME280;66155;46.204;5.220;2023-01-19T22:27:40;97898.69;;;0.09;69.66
48874;BME280;66155;46.204;5.220;2023-01-19T22:32:40;97901.47;;;0.14;69.61
48874;BME280;66155;46.204;5.220;2023-01-19T22:37:40;97912.50;;;0.08;69.73
48874;BME280;66155;46.204;5.220;2023-01-19T22:42:45;97920.38;;;0.06;69.73
48874;BME280;66155;46.204;5.220;2023-01-19T22:47:47;97936.56;;;0.00;69.82
48874;BME280;66155;46.204;5.220;2023-01-19T22:52:47;97933.00;;;-0.12;70.28
48874;BME280;66155;46.204;5.220;2023-01-19T22:57:48;97941.44;;;-0.18;70.16
48874;BME280;66155;46.204;5.220;2023-01-19T23:02:48;97944.78;;;-0.18;70.19
48874;BME280;66155;46.204;5.220;2023-01-19T23:07:48;97952.09;;;-0.15;69.88
48874;BME280;66155;46.204;5.220;2023-01-19T23:12:49;97954.06;;;-0.04;69.82
48874;BME280;66155;46.204;5.220;2023-01-19T23:17:49;97973.19;;;0.01;69.48
48874;BME280;66155;46.204;5.220;2023-01-19T23:22:52;97970.03;;;-0.02;70.17
48874;BME280;66155;46.204;5.220;2023-01-19T23:27:53;97981.03;;;-0.14;69.99
48874;BME280;66155;46.204;5.220;2023-01-19T23:32:53;97973.94;;;-0.19;70.90
48874;BME280;66155;46.204;5.220;2023-01-19T23:37:53;97978.84;;;-0.24;70.43
48874;BME280;66155;46.204;5.220;2023-01-19T23:42:54;97978.44;;;-0.28;71.50
48874;BME280;66155;46.204;5.220;2023-01-19T23:47:54;97980.84;;;-0.20;70.65
48874;BME280;66155;46.204;5.220;2023-01-19T23:52:55;97981.00;;;-0.28;71.08
48874;BME280;66155;46.204;5.220;2023-01-19T23:57:55;97986.09;;;-0.34;71.66
